createdAt,value
2023-01-23T00:01:15.863Z,96952.97
2023-01-23T00:03:42.570Z,96957.94
2023-01-23T00:06:11.783Z,96959.22
2023-01-23T00:08:38.601Z,96968.22
2023-01-23T00:11:06.437Z,96976.75
2023-01-23T00:13:33.508Z,96961.31
2023-01-23T00:16:03.168Z,96962.09
2023-01-23T00:18:29.688Z,96964.34
2023-01-23T00:20:56.176Z,96967.53
2023-01-23T00:23:22.613Z,96966.81
2023-01-23T00:25:49.123Z,96979.72
2023-01-23T00:28:15.585Z,96980.22
2023-01-23T00:30:42.059Z,96978.81
2023-01-23T00:33:08.615Z,96974.91
2023-01-23T00:35:35.551Z,96978.75
2023-01-23T00:38:02.017Z,96976.59
2023-01-23T00:40:28.527Z,96983.19
2023-01-23T00:42:55.104Z,96993.16
2023-01-23T00:45:21.600Z,96995.25
2023-01-23T00:47:48.024Z,96983.88
2023-01-23T00:50:15.117Z,96982.91
2023-01-23T00:52:41.726Z,96977.44
2023-01-23T00:55:08.656Z,96972.03
2023-01-23T00:57:35.148Z,96966.72
2023-01-23T01:00:01.595Z,96973.28
2023-01-23T01:02:28.119Z,96976.34
2023-01-23T01:04:54.588Z,96983.28
2023-01-23T01:07:21.015Z,96979.38
2023-01-23T01:09:47.713Z,96976.75
2023-01-23T01:12:14.346Z,96972.47
2023-01-23T01:14:40.980Z,96972.47
2023-01-23T01:17:07.573Z,96976.75
2023-01-23T01:19:33.997Z,96985.53
2023-01-23T01:22:00.410Z,96986.50
2023-01-23T01:24:26.884Z,96985.41
2023-01-23T01:26:53.476Z,96972.22
2023-01-23T01:29:19.972Z,96983.94
2023-01-23T01:31:47.691Z,96991.66
2023-01-23T01:34:14.229Z,96993.31
2023-01-23T01:36:40.791Z,96986.44
2023-01-23T01:39:07.539Z,96988.78
2023-01-23T01:41:34.045Z,96989.75
2023-01-23T01:44:00.746Z,96987.25
2023-01-23T01:46:28.048Z,96990.25
2023-01-23T01:48:57.584Z,96991.31
2023-01-23T01:51:27.146Z,96990.47
2023-01-23T01:54:06.393Z,96992.47
2023-01-23T01:56:34.702Z,96987.72
2023-01-23T01:59:02.271Z,96986.16
2023-01-23T02:01:28.857Z,96985.84
2023-01-23T02:03:55.445Z,96987.19
2023-01-23T02:06:22.148Z,96989.31
2023-01-23T02:09:02.037Z,96988.66
2023-01-23T02:11:28.721Z,96990.28
2023-01-23T02:13:56.772Z,96998.13
2023-01-23T02:16:29.595Z,96996.47
2023-01-23T02:18:59.087Z,97007.84
2023-01-23T02:21:25.751Z,97006.06
2023-01-23T02:23:55.311Z,96997.41
2023-01-23T02:26:27.890Z,97003.34
2023-01-23T02:28:55.946Z,97005.22
2023-01-23T02:31:22.648Z,97003.47
2023-01-23T02:33:51.022Z,97006.78
2023-01-23T02:36:18.209Z,97009.00
2023-01-23T02:38:49.344Z,97003.41
2023-01-23T02:41:16.027Z,97007.56
2023-01-23T02:43:42.768Z,97001.50
2023-01-23T02:46:10.820Z,97002.34
2023-01-23T02:48:40.027Z,97015.25
2023-01-23T02:51:07.477Z,97010.88
2023-01-23T02:53:34.016Z,97014.44
2023-01-23T02:56:00.850Z,97018.00
2023-01-23T02:58:45.783Z,97016.34
2023-01-23T03:01:12.304Z,97025.13
2023-01-23T03:03:41.625Z,97019.78
2023-01-23T03:06:08.422Z,97019.78
2023-01-23T03:08:36.712Z,97019.91
2023-01-23T03:11:04.139Z,97014.44
2023-01-23T03:13:30.654Z,97019.41
2023-01-23T03:16:00.450Z,97010.50
2023-01-23T03:18:30.998Z,97015.34
2023-01-23T03:21:01.789Z,97023.16
2023-01-23T03:23:28.239Z,97013.81
2023-01-23T03:25:58.530Z,97024.13
2023-01-23T03:28:44.768Z,97017.50
2023-01-23T03:31:11.941Z,97022.97
2023-01-23T03:33:39.326Z,97035.75
2023-01-23T03:36:06.311Z,97036.47
2023-01-23T03:38:32.830Z,97040.50
2023-01-23T03:41:17.715Z,97034.56
2023-01-23T03:43:44.202Z,97044.03
2023-01-23T03:46:10.749Z,97042.16
2023-01-23T03:48:37.173Z,97044.75
2023-01-23T03:51:03.787Z,97053.56
2023-01-23T03:53:30.220Z,97052.47
2023-01-23T03:55:56.647Z,97051.41
2023-01-23T03:58:23.071Z,97055.19
2023-01-23T04:00:49.587Z,97052.47
2023-01-23T04:03:16.322Z,97042.53
2023-01-23T04:05:42.743Z,97046.09
2023-01-23T04:08:09.171Z,97048.59
2023-01-23T04:10:36.339Z,97053.81
2023-01-23T04:13:03.389Z,97056.16
2023-01-23T04:15:31.763Z,97055.72
2023-01-23T04:17:58.267Z,97055.31
2023-01-23T04:20:24.977Z,97066.09
2023-01-23T04:22:51.427Z,97058.84
2023-01-23T04:25:17.911Z,97062.22
2023-01-23T04:27:44.363Z,97061.78
2023-01-23T04:30:11.111Z,97062.31
2023-01-23T04:32:37.586Z,97062.84
2023-01-23T04:35:04.153Z,97064.00
2023-01-23T04:37:30.580Z,97068.72
2023-01-23T04:39:57.046Z,97068.72
2023-01-23T04:42:23.522Z,97078.69
2023-01-23T04:44:49.959Z,97075.69
2023-01-23T04:47:16.404Z,97077.34
2023-01-23T04:49:43.474Z,97077.56
2023-01-23T04:52:09.969Z,97076.53
2023-01-23T04:54:36.488Z,97079.84
2023-01-23T04:57:02.953Z,97079.84
2023-01-23T04:59:29.384Z,97073.38
2023-01-23T05:01:55.865Z,97084.56
2023-01-23T05:04:22.330Z,97090.34
2023-01-23T05:06:48.774Z,97086.69
2023-01-23T05:09:15.209Z,97086.44
2023-01-23T05:11:41.720Z,97087.41
2023-01-23T05:14:08.290Z,97099.50
2023-01-23T05:16:34.869Z,97095.00
2023-01-23T05:19:01.314Z,97101.06
2023-01-23T05:21:27.783Z,97100.47
2023-01-23T05:23:54.236Z,97102.13
2023-01-23T05:26:20.675Z,97112.09
2023-01-23T05:28:47.132Z,97111.38
2023-01-23T05:31:13.644Z,97105.19
2023-01-23T05:33:40.511Z,97109.34
2023-01-23T05:36:07.137Z,97109.09
2023-01-23T05:38:33.582Z,97116.78
2023-01-23T05:40:59.983Z,97120.13
2023-01-23T05:43:26.471Z,97122.84
2023-01-23T05:45:52.884Z,97119.88
2023-01-23T05:48:19.363Z,97127.25
2023-01-23T05:50:45.772Z,97130.56
2023-01-23T05:53:12.219Z,97133.75
2023-01-23T05:55:39.259Z,97139.13
2023-01-23T05:58:05.781Z,97134.69
2023-01-23T06:00:33.123Z,97136.97
2023-01-23T06:02:59.549Z,97136.00
2023-01-23T06:05:26.097Z,97133.13
2023-01-23T06:07:52.605Z,97145.38
2023-01-23T06:10:19.356Z,97137.28
2023-01-23T06:12:45.993Z,97143.09
2023-01-23T06:15:12.487Z,97145.56
2023-01-23T06:17:38.948Z,97146.16
2023-01-23T06:20:05.701Z,97146.16
2023-01-23T06:22:32.178Z,97148.06
2023-01-23T06:24:58.609Z,97150.66
2023-01-23T06:27:25.057Z,97153.28
2023-01-23T06:29:51.489Z,97156.59
2023-01-23T06:32:18.105Z,97162.78
2023-01-23T06:34:44.580Z,97157.56
2023-01-23T06:37:11.020Z,97160.88
2023-01-23T06:39:37.906Z,97165.16
2023-01-23T06:42:06.099Z,97165.16
2023-01-23T06:44:32.530Z,97162.28
2023-01-23T06:46:58.953Z,97163.13
2023-01-23T06:49:25.562Z,97171.91
2023-01-23T06:51:51.974Z,97165.72
2023-01-23T06:54:18.435Z,97171.09
2023-01-23T06:56:44.903Z,97165.34
2023-01-23T06:59:11.435Z,97178.59
2023-01-23T07:01:37.897Z,97182.63
2023-01-23T07:04:04.430Z,97185.13
2023-01-23T07:06:31.379Z,97184.06
2023-01-23T07:08:57.812Z,97185.13
2023-01-23T07:11:24.546Z,97187.88
2023-01-23T07:13:50.988Z,97189.28
2023-01-23T07:16:17.552Z,97195.06
2023-01-23T07:18:44.001Z,97199.63
2023-01-23T07:21:10.612Z,97188.13
2023-01-23T07:23:37.099Z,97185.28
2023-01-23T07:26:04.713Z,97202.66
2023-01-23T07:28:31.218Z,97196.09
2023-01-23T07:30:59.145Z,97194.75
2023-01-23T07:33:25.677Z,97203.56
2023-01-23T07:35:52.099Z,97195.00
2023-01-23T07:38:18.524Z,97196.41
2023-01-23T07:40:45.459Z,97191.66
2023-01-23T07:43:12.251Z,97192.09
2023-01-23T07:45:38.977Z,97193.47
2023-01-23T07:48:05.420Z,97191.00
2023-01-23T07:50:31.838Z,97197.56
2023-01-23T07:52:58.555Z,97196.34
2023-01-23T07:55:25.030Z,97197.06
2023-01-23T07:57:51.468Z,97187.56
2023-01-23T08:00:18.567Z,97192.09
2023-01-23T08:02:45.170Z,97197.31
2023-01-23T08:05:11.775Z,97204.47
2023-01-23T08:07:40.341Z,97198.03
2023-01-23T08:10:07.292Z,97203.44
2023-01-23T08:12:34.011Z,97197.03
2023-01-23T08:15:00.527Z,97201.97
2023-01-23T08:17:27.007Z,97198.41
2023-01-23T08:19:53.435Z,97191.13
2023-01-23T08:22:19.871Z,97190.88
2023-01-23T08:24:47.301Z,97196.94
2023-01-23T08:27:13.804Z,97198.34
2023-01-23T08:29:40.272Z,97196.53
2023-01-23T08:32:06.809Z,97201.63
2023-01-23T08:34:33.353Z,97199.72
2023-01-23T08:36:59.768Z,97202.34
2023-01-23T08:39:26.305Z,97204.03
2023-01-23T08:41:52.725Z,97211.88
2023-01-23T08:44:19.330Z,97213.53
2023-01-23T08:46:46.082Z,97218.63
2023-01-23T08:49:12.645Z,97219.47
2023-01-23T08:51:39.185Z,97221.81
2023-01-23T08:54:06.141Z,97227.31
2023-01-23T08:56:32.634Z,97220.16
2023-01-23T08:58:59.120Z,97214.94
2023-01-23T09:01:26.623Z,97229.41
2023-01-23T09:03:53.221Z,97228.19
2023-01-23T09:06:21.256Z,97226.28
2023-01-23T09:08:47.766Z,97236.75
2023-01-23T09:11:14.894Z,97233.88
2023-01-23T09:13:41.590Z,97237.19
2023-01-23T09:16:08.562Z,97235.97
2023-01-23T09:18:35.359Z,97237.38
2023-01-23T09:21:08.547Z,97235.47
2023-01-23T09:23:35.153Z,97226.75
2023-01-23T09:26:05.613Z,97227.59
2023-01-23T09:28:32.240Z,97220.72
2023-01-23T09:31:02.305Z,97225.00
2023-01-23T09:33:28.933Z,97227.34
2023-01-23T09:35:55.454Z,97227.47
2023-01-23T09:38:22.506Z,97224.72
2023-01-23T09:40:53.679Z,97222.81
2023-01-23T09:43:25.098Z,97219.13
2023-01-23T09:46:03.111Z,97218.97
2023-01-23T09:48:29.697Z,97212.50
2023-01-23T09:50:59.290Z,97215.97
2023-01-23T09:53:31.126Z,97219.56
2023-01-23T09:56:04.957Z,97216.09
2023-01-23T09:58:40.676Z,97229.75
2023-01-23T10:01:11.338Z,97226.03
2023-01-23T10:03:38.038Z,97223.19
2023-01-23T10:06:13.751Z,97227.56
2023-01-23T10:08:49.427Z,97222.91
2023-01-23T10:11:18.810Z,97222.63
2023-01-23T10:13:45.584Z,97213.94
2023-01-23T10:16:15.055Z,97219.31
2023-01-23T10:18:47.610Z,97223.72
2023-01-23T10:21:14.025Z,97220.72
2023-01-23T10:23:40.896Z,97222.09
2023-01-23T10:26:12.682Z,97206.38
2023-01-23T10:28:39.506Z,97203.66
2023-01-23T10:31:20.482Z,97204.19
2023-01-23T10:34:10.320Z,97209.13
2023-01-23T10:36:47.782Z,97204.44
2023-01-23T10:39:22.586Z,97204.56
2023-01-23T10:41:54.313Z,97208.84
2023-01-23T10:44:29.504Z,97194.25
2023-01-23T10:47:01.679Z,97192.56
2023-01-23T10:49:35.320Z,97202.22
2023-01-23T10:52:02.129Z,97196.53
2023-01-23T10:54:32.235Z,97190.63
2023-01-23T10:57:08.360Z,97194.03
2023-01-23T10:59:37.400Z,97185.38
2023-01-23T11:02:03.984Z,97192.97
2023-01-23T11:04:31.934Z,97187.03
2023-01-23T11:07:04.583Z,97183.72
2023-01-23T11:09:31.398Z,97188.66
2023-01-23T11:12:04.849Z,97195.84
2023-01-23T11:14:31.789Z,97187.28
2023-01-23T11:17:03.131Z,97192.13
2023-01-23T11:19:31.226Z,97192.00
2023-01-23T11:22:02.084Z,97187.06
2023-01-23T11:24:39.684Z,97183.22
2023-01-23T11:27:13.233Z,97178.25
2023-01-23T11:29:48.744Z,97172.88
2023-01-23T11:32:16.884Z,97174.97
2023-01-23T11:34:47.184Z,97169.47
2023-01-23T11:37:18.375Z,97169.72
2023-01-23T11:39:45.397Z,97171.09
2023-01-23T11:42:12.926Z,97165.31
2023-01-23T11:44:45.991Z,97161.88
2023-01-23T11:47:28.097Z,97163.25
2023-01-23T11:50:04.410Z,97160.91
2023-01-23T11:52:30.854Z,97163.25
2023-01-23T11:55:03.415Z,97164.47
2023-01-23T11:57:48.266Z,97152.78
2023-01-23T12:00:37.717Z,97153.50
2023-01-23T12:03:04.213Z,97154.88
2023-01-23T12:06:18.336Z,97155.56
2023-01-23T12:08:51.463Z,97158.88
2023-01-23T12:11:20.324Z,97158.59
2023-01-23T12:13:52.850Z,97155.84
2023-01-23T12:16:27.258Z,97147.97
2023-01-23T12:19:11.863Z,97156.81
2023-01-23T12:21:47.595Z,97148.69
2023-01-23T12:24:26.234Z,97150.78
2023-01-23T12:27:05.833Z,97147.75
2023-01-23T12:29:41.614Z,97157.25
2023-01-23T12:32:28.322Z,97155.47
2023-01-23T12:35:05.246Z,97146.78
2023-01-23T12:37:47.227Z,97153.69
2023-01-23T12:40:22.688Z,97155.31
2023-01-23T12:42:53.653Z,97164.88
2023-01-23T12:45:20.447Z,97164.88
2023-01-23T12:47:56.083Z,97170.09
2023-01-23T12:50:32.809Z,97170.81
2023-01-23T12:53:26.329Z,97176.72
2023-01-23T12:55:52.838Z,97173.16
2023-01-23T12:58:20.376Z,97179.09
2023-01-23T13:00:56.181Z,97177.28
2023-01-23T13:03:22.940Z,97179.75
2023-01-23T13:06:01.482Z,97173.72
2023-01-23T13:08:40.487Z,97175.34
2023-01-23T13:11:38.842Z,97170.94
2023-01-23T13:14:17.496Z,97166.66
2023-01-23T13:16:48.454Z,97165.00
2023-01-23T13:19:44.525Z,97165.69
2023-01-23T13:22:22.299Z,97165.28
2023-01-23T13:25:13.152Z,97171.22
2023-01-23T13:27:41.167Z,97169.56
2023-01-23T13:30:42.833Z,97167.06
2023-01-23T13:33:15.282Z,97170.50
2023-01-23T13:35:49.379Z,97172.03
2023-01-23T13:38:22.109Z,97167.50
2023-01-23T13:41:04.381Z,97162.50
2023-01-23T13:43:43.095Z,97172.56
2023-01-23T13:46:24.093Z,97175.31
2023-01-23T14:20:24.484Z,97193.19
2023-01-23T14:22:53.914Z,97198.16
2023-01-23T14:25:20.479Z,97195.81
2023-01-23T14:27:53.607Z,97196.25
2023-01-23T14:30:24.736Z,97191.84
2023-01-23T14:32:51.262Z,97201.50
2023-01-23T14:35:18.932Z,97209.34
2023-01-23T14:37:46.732Z,97203.69
2023-01-23T14:40:26.583Z,97197.34
2023-01-23T14:42:57.614Z,97205.31
2023-01-23T14:45:24.266Z,97206.16
2023-01-23T14:48:04.490Z,97197.03
2023-01-23T14:50:31.933Z,97202.41
2023-01-23T14:53:06.346Z,97200.63
2023-01-23T14:55:36.507Z,97203.53
2023-01-23T14:58:03.799Z,97198.81
2023-01-23T15:00:30.579Z,97208.06
2023-01-23T15:02:57.054Z,97205.88
2023-01-23T15:05:25.258Z,97202.81
2023-01-23T15:08:10.701Z,97209.56
2023-01-23T15:10:37.224Z,97207.22
2023-01-23T15:13:05.883Z,97211.19
2023-01-23T15:15:34.520Z,97221.53
2023-01-23T15:18:02.180Z,97218.81
2023-01-23T15:20:28.888Z,97219.19
2023-01-23T15:22:55.468Z,97234.41
2023-01-23T15:25:32.731Z,97222.81
2023-01-23T15:27:59.200Z,97220.72
2023-01-23T15:30:37.976Z,97222.63
2023-01-23T15:33:10.289Z,97225.50
2023-01-23T15:35:38.872Z,97228.50
2023-01-23T15:38:08.673Z,97228.25
2023-01-23T15:40:36.983Z,97227.59
2023-01-23T15:43:05.832Z,97226.84
2023-01-23T15:45:33.818Z,97233.84
2023-01-23T15:48:00.689Z,97227.22
2023-01-23T15:50:27.802Z,97226.41
2023-01-23T15:52:55.082Z,97237.94
2023-01-23T15:55:23.540Z,97227.78
2023-01-23T15:57:52.168Z,97232.75
2023-01-23T16:00:20.645Z,97232.75
2023-01-23T16:02:56.336Z,97236.63
2023-01-23T16:05:25.031Z,97236.06
2023-01-23T16:07:52.563Z,97238.94
2023-01-23T16:10:29.833Z,97238.94
2023-01-23T16:12:57.388Z,97244.00
2023-01-23T16:15:25.443Z,97239.41
2023-01-23T16:17:52.051Z,97241.19
2023-01-23T16:20:19.833Z,97242.03
2023-01-23T16:22:49.028Z,97242.56
2023-01-23T16:25:19.869Z,97240.31
2023-01-23T16:27:46.323Z,97253.84
2023-01-23T16:30:17.333Z,97240.06
2023-01-23T16:32:43.844Z,97244.06
2023-01-23T16:35:12.005Z,97248.94
2023-01-23T16:37:40.899Z,97242.59
2023-01-23T16:40:14.797Z,97260.00
2023-01-23T16:42:41.957Z,97256.78
2023-01-23T16:45:37.601Z,97252.13
2023-01-23T16:48:04.252Z,97263.28
2023-01-23T16:50:30.800Z,97258.84
2023-01-23T16:53:03.589Z,97255.78
2023-01-23T16:55:38.620Z,97258.53
2023-01-23T16:58:06.487Z,97255.34
2023-01-23T17:00:35.196Z,97263.06
2023-01-23T17:03:04.871Z,97262.91
2023-01-23T17:05:31.384Z,97256.22
2023-01-23T17:07:57.874Z,97265.44
2023-01-23T17:10:27.765Z,97260.94
2023-01-23T17:12:57.314Z,97262.53
2023-01-23T17:15:25.003Z,97265.41
2023-01-23T17:17:52.724Z,97266.75
2023-01-23T17:20:19.448Z,97265.09
2023-01-23T17:22:46.315Z,97272.69
2023-01-23T17:25:13.644Z,97266.25
2023-01-23T17:27:45.409Z,97275.03
2023-01-23T17:30:23.201Z,97270.06
2023-01-23T17:32:55.688Z,97272.28
2023-01-23T17:35:24.544Z,97268.47
2023-01-23T17:37:51.815Z,97267.50
2023-01-23T17:40:18.526Z,97273.06
2023-01-23T17:42:45.145Z,97263.81
2023-01-23T17:45:15.910Z,97269.03
2023-01-23T17:47:43.420Z,97264.66
2023-01-23T17:50:17.785Z,97270.69
2023-01-23T17:52:44.478Z,97271.22
2023-01-23T17:55:18.754Z,97268.72
2023-01-23T17:57:45.239Z,97269.81
2023-01-23T18:00:13.071Z,97271.97
2023-01-23T18:02:40.372Z,97263.53
2023-01-23T18:05:10.134Z,97254.63
2023-01-23T18:07:52.342Z,97271.84
2023-01-23T18:10:20.726Z,97264.19
2023-01-23T18:13:14.854Z,97272.03
2023-01-23T18:16:04.637Z,97254.44
2023-01-23T18:18:32.282Z,97262.91
2023-01-23T18:20:59.602Z,97259.91
2023-01-23T18:23:27.233Z,97264.31
2023-01-23T18:26:13.895Z,97269.31
2023-01-23T18:28:51.988Z,97258.56
2023-01-23T18:31:26.504Z,97261.75
2023-01-23T18:33:58.655Z,97264.81
2023-01-23T18:36:25.067Z,97261.09
2023-01-23T18:39:10.684Z,97259.19
2023-01-23T18:41:38.715Z,97265.84
2023-01-23T18:44:11.257Z,97261.19
2023-01-23T18:46:37.800Z,97261.31
2023-01-23T18:49:04.691Z,97269.84
2023-01-23T18:51:37.777Z,97268.59
2023-01-23T18:54:20.504Z,97272.38
2023-01-23T18:56:56.324Z,97268.50
2023-01-23T18:59:26.715Z,97265.75
2023-01-23T19:01:54.578Z,97270.75
2023-01-23T19:04:38.276Z,97273.81
2023-01-23T19:07:14.212Z,97283.31
2023-01-23T19:09:46.300Z,97277.03
2023-01-23T19:12:30.283Z,97271.13
2023-01-23T19:15:16.290Z,97281.28
2023-01-23T19:17:42.760Z,97274.41
2023-01-23T19:20:28.445Z,97273.69
2023-01-23T19:23:13.795Z,97280.53
2023-01-23T19:25:40.395Z,97277.78
2023-01-23T19:28:10.171Z,97275.88
2023-01-23T19:30:38.167Z,97275.91
2023-01-23T19:33:04.828Z,97277.91
2023-01-23T19:35:32.113Z,97268.50
2023-01-23T19:38:00.345Z,97277.50
2023-01-23T19:40:26.880Z,97276.31
2023-01-23T19:43:12.862Z,97284.03
2023-01-23T19:45:40.771Z,97276.75
2023-01-23T19:48:07.306Z,97272.44
2023-01-23T19:50:33.729Z,97282.69
2023-01-23T19:53:00.354Z,97276.81
2023-01-23T19:55:26.858Z,97280.41
2023-01-23T19:57:53.375Z,97275.69
2023-01-23T20:00:20.483Z,97275.16
2023-01-23T20:02:47.108Z,97274.91
2023-01-23T20:05:13.564Z,97274.19
2023-01-23T20:07:40.062Z,97275.16
2023-01-23T20:10:07.416Z,97274.00
2023-01-23T20:12:39.811Z,97274.47
2023-01-23T20:15:06.694Z,97279.19
2023-01-23T20:17:33.226Z,97283.47
2023-01-23T20:19:59.712Z,97279.81
2023-01-23T20:22:26.168Z,97285.69
2023-01-23T20:24:52.617Z,97285.94
2023-01-23T20:27:19.188Z,97285.00
2023-01-23T20:29:45.635Z,97287.38
2023-01-23T20:32:12.089Z,97285.19
2023-01-23T20:34:38.587Z,97285.69
2023-01-23T20:37:05.069Z,97284.47
2023-01-23T20:39:31.521Z,97285.06
2023-01-23T20:41:57.970Z,97287.03
2023-01-23T20:44:24.461Z,97292.50
2023-01-23T20:46:50.973Z,97292.97
2023-01-23T20:49:17.553Z,97291.75
2023-01-23T20:51:44.143Z,97294.81
2023-01-23T20:54:10.663Z,97286.69
2023-01-23T20:56:37.195Z,97278.84
2023-01-23T20:59:19.025Z,97286.97
2023-01-23T21:02:04.478Z,97297.28
2023-01-23T21:04:33.440Z,97293.97
2023-01-23T21:07:00.175Z,97285.31
2023-01-23T21:09:27.065Z,97282.69
2023-01-23T21:11:53.992Z,97290.91
2023-01-23T21:14:21.059Z,97289.97
2023-01-23T21:16:47.912Z,97297.56
2023-01-23T21:19:14.901Z,97294.81
2023-01-23T21:21:41.478Z,97299.88
2023-01-23T21:24:08.206Z,97291.44
2023-01-23T21:26:35.388Z,97290.28
2023-01-23T21:29:01.842Z,97296.72
2023-01-23T21:31:30.598Z,97296.41
2023-01-23T21:33:59.108Z,97300.59
2023-01-23T21:36:25.681Z,97299.13
2023-01-23T21:38:52.653Z,97310.66
2023-01-23T21:41:19.448Z,97307.09
2023-01-23T21:43:46.143Z,97303.50
2023-01-23T21:46:13.093Z,97308.47
2023-01-23T21:48:39.625Z,97304.22
2023-01-23T21:51:10.097Z,97311.81
2023-01-23T21:53:37.643Z,97310.75
2023-01-23T21:56:04.951Z,97303.38
2023-01-23T21:58:31.589Z,97306.72
2023-01-23T22:01:17.128Z,97307.41
2023-01-23T22:03:44.696Z,97307.72
2023-01-23T22:06:11.228Z,97300.59
2023-01-23T22:08:37.877Z,97295.03
2023-01-23T22:11:05.217Z,97302.19
2023-01-23T22:13:31.708Z,97300.50
2023-01-23T22:15:58.734Z,97295.13
2023-01-23T22:18:25.466Z,97296.09
2023-01-23T22:20:58.701Z,97294.47
2023-01-23T22:23:25.459Z,97290.59
2023-01-23T22:25:55.256Z,97293.66
2023-01-23T22:28:21.811Z,97289.84
2023-01-23T22:30:48.486Z,97295.34
2023-01-23T22:33:15.188Z,97298.41
2023-01-23T22:35:42.394Z,97293.75
2023-01-23T22:38:09.983Z,97290.41
2023-01-23T22:40:36.466Z,97286.03
2023-01-23T22:43:03.382Z,97287.66
2023-01-23T22:45:30.022Z,97291.50
2023-01-23T22:47:56.489Z,97300.03
2023-01-23T22:50:23.104Z,97297.03
2023-01-23T22:52:49.535Z,97301.16
2023-01-23T22:55:15.985Z,97294.25
2023-01-23T22:57:42.487Z,97299.22
2023-01-23T23:00:13.660Z,97300.75
2023-01-23T23:02:40.602Z,97295.66
2023-01-23T23:05:07.561Z,97299.34
2023-01-23T23:07:34.495Z,97301.53
2023-01-23T23:10:00.923Z,97295.97
2023-01-23T23:12:28.010Z,97299.28
2023-01-23T23:14:54.459Z,97298.19
2023-01-23T23:17:20.902Z,97297.25
2023-01-23T23:19:47.334Z,97294.69
2023-01-23T23:22:13.777Z,97296.38
2023-01-23T23:24:40.249Z,97297.69
2023-01-23T23:27:06.676Z,97295.78
2023-01-23T23:29:33.243Z,97293.53
2023-01-23T23:31:59.776Z,97294.38
2023-01-23T23:34:26.286Z,97298.53
2023-01-23T23:36:52.734Z,97304.84
2023-01-23T23:39:19.245Z,97302.22
2023-01-23T23:41:45.681Z,97298.31
2023-01-23T23:44:12.131Z,97300.13
2023-01-23T23:46:38.595Z,97299.03
2023-01-23T23:49:05.049Z,97303.31
2023-01-23T23:51:31.493Z,97301.88
2023-01-23T23:53:57.930Z,97299.34
2023-01-23T23:56:26.104Z,97300.75
2023-01-23T23:58:52.753Z,97302.81
